createdAt,value
2022-09-06T00:01:18.926Z,99.90
2022-09-06T00:03:47.566Z,99.90
2022-09-06T00:06:17.930Z,99.90
2022-09-06T00:08:47.881Z,99.90
2022-09-06T00:11:16.564Z,99.90
2022-09-06T00:13:45.025Z,99.90
2022-09-06T00:16:14.089Z,99.90
2022-09-06T00:18:42.189Z,99.90
2022-09-06T00:21:15.504Z,99.90
2022-09-06T00:23:43.656Z,99.90
2022-09-06T00:26:13.260Z,99.90
2022-09-06T00:28:41.372Z,99.90
2022-09-06T00:31:10.428Z,99.90
2022-09-06T00:33:38.651Z,99.90
2022-09-06T00:36:06.871Z,99.90
2022-09-06T00:38:35.230Z,99.90
2022-09-06T00:41:03.520Z,99.90
2022-09-06T00:43:33.039Z,99.90
2022-09-06T00:46:01.359Z,99.90
2022-09-06T00:48:29.577Z,99.90
2022-09-06T00:51:00.010Z,99.90
2022-09-06T00:53:28.236Z,99.90
2022-09-06T00:55:56.984Z,99.90
2022-09-06T00:58:25.957Z,99.90
2022-09-06T01:00:55.424Z,99.90
2022-09-06T01:03:24.289Z,99.90
2022-09-06T01:05:58.621Z,99.90
2022-09-06T01:08:35.544Z,99.90
2022-09-06T01:11:11.482Z,99.90
2022-09-06T01:13:44.978Z,99.90
2022-09-06T01:16:17.236Z,99.90
2022-09-06T01:18:55.503Z,99.90
2022-09-06T01:21:35.661Z,99.90
2022-09-06T01:24:33.571Z,99.90
2022-09-06T01:27:22.528Z,99.90
2022-09-06T01:29:52.744Z,99.90
2022-09-06T01:32:25.118Z,99.90
2022-09-06T01:34:54.473Z,99.90
2022-09-06T01:37:24.622Z,99.90
2022-09-06T01:39:52.740Z,99.90
2022-09-06T01:42:22.207Z,99.90
2022-09-06T01:44:52.530Z,99.90
2022-09-06T01:47:29.544Z,99.90
2022-09-06T01:50:08.093Z,99.90
2022-09-06T01:52:39.540Z,99.90
2022-09-06T01:55:11.833Z,99.90
2022-09-06T01:57:49.260Z,99.90
2022-09-06T02:00:18.356Z,99.90
2022-09-06T02:02:54.783Z,99.90
2022-09-06T02:05:25.301Z,99.90
2022-09-06T02:07:55.589Z,99.90
2022-09-06T02:10:26.968Z,99.90
2022-09-06T02:12:56.580Z,99.90
2022-09-06T02:15:26.328Z,99.90
2022-09-06T02:17:59.554Z,99.90
2022-09-06T02:20:30.879Z,99.90
2022-09-06T02:23:00.695Z,99.90
2022-09-06T02:25:31.209Z,99.90
2022-09-06T02:27:59.317Z,99.90
2022-09-06T02:30:27.452Z,99.90
2022-09-06T02:32:58.584Z,99.90
2022-09-06T02:35:26.764Z,99.90
2022-09-06T02:37:56.417Z,99.90
2022-09-06T02:40:24.845Z,99.90
2022-09-06T02:42:53.633Z,99.90
2022-09-06T02:45:21.705Z,99.90
2022-09-06T02:47:49.756Z,99.90
2022-09-06T02:50:19.269Z,99.90
2022-09-06T02:52:47.309Z,99.90
2022-09-06T02:55:15.404Z,99.90
2022-09-06T02:57:43.862Z,99.90
2022-09-06T03:00:12.368Z,99.90
2022-09-06T03:02:40.480Z,99.90
2022-09-06T03:05:08.867Z,99.90
2022-09-06T03:07:38.283Z,99.90
2022-09-06T03:10:06.726Z,99.90
2022-09-06T03:12:34.846Z,99.90
2022-09-06T03:15:02.865Z,99.90
2022-09-06T03:17:31.316Z,99.90
2022-09-06T03:19:59.300Z,99.90
2022-09-06T03:22:27.425Z,99.90
2022-09-06T03:24:56.864Z,99.90
2022-09-06T03:27:24.958Z,99.90
2022-09-06T03:29:52.999Z,99.90
2022-09-06T03:32:21.025Z,99.90
2022-09-06T03:34:49.075Z,99.90
2022-09-06T03:37:17.167Z,99.90
2022-09-06T03:39:45.279Z,99.90
2022-09-06T03:42:14.763Z,99.90
2022-09-06T03:44:42.871Z,99.90
2022-09-06T03:47:10.944Z,99.90
2022-09-06T03:49:39.601Z,99.90
2022-09-06T03:52:07.739Z,99.90
2022-09-06T03:54:36.171Z,99.90
2022-09-06T03:57:04.381Z,99.90
2022-09-06T03:59:33.973Z,99.90
2022-09-06T04:02:02.081Z,99.90
2022-09-06T04:04:30.220Z,99.90
2022-09-06T04:06:58.259Z,99.90
2022-09-06T04:09:26.359Z,99.90
2022-09-06T04:11:54.366Z,99.90
2022-09-06T04:14:22.467Z,99.90
2022-09-06T04:16:52.570Z,99.90
2022-09-06T04:19:20.768Z,99.90
2022-09-06T04:21:48.839Z,99.90
2022-09-06T04:24:16.849Z,99.90
2022-09-06T04:26:44.884Z,99.90
2022-09-06T04:29:12.937Z,99.90
2022-09-06T04:31:41.070Z,99.90
2022-09-06T04:34:10.584Z,99.90
2022-09-06T04:36:38.660Z,99.90
2022-09-06T04:39:06.716Z,99.90
2022-09-06T04:41:34.775Z,99.90
2022-09-06T04:44:02.961Z,99.90
2022-09-06T04:46:31.513Z,99.90
2022-09-06T04:49:01.403Z,99.90
2022-09-06T04:51:31.687Z,99.90
2022-09-06T04:53:59.809Z,99.90
2022-09-06T04:56:28.035Z,99.90
2022-09-06T04:58:56.679Z,99.90
2022-09-06T05:01:26.311Z,99.90
2022-09-06T05:03:56.873Z,99.90
2022-09-06T05:06:25.730Z,99.90
2022-09-06T05:08:55.193Z,99.90
2022-09-06T05:11:23.231Z,99.90
2022-09-06T05:13:51.338Z,99.90
2022-09-06T05:16:19.500Z,99.90
2022-09-06T05:18:47.596Z,99.90
2022-09-06T05:21:15.931Z,99.90
2022-09-06T05:23:44.052Z,99.90
2022-09-06T05:26:13.488Z,99.90
2022-09-06T05:28:41.570Z,99.90
2022-09-06T05:31:10.473Z,99.90
2022-09-06T05:33:38.685Z,99.90
2022-09-06T05:36:07.364Z,99.90
2022-09-06T05:38:35.458Z,99.90
2022-09-06T05:41:03.524Z,99.90
2022-09-06T05:43:32.981Z,99.90
2022-09-06T05:46:01.148Z,99.90
2022-09-06T05:48:33.330Z,99.90
2022-09-06T05:51:04.808Z,99.90
2022-09-06T05:53:35.153Z,99.90
2022-09-06T05:56:03.393Z,99.90
2022-09-06T05:58:32.837Z,99.90
2022-09-06T06:01:08.534Z,99.90
2022-09-06T06:03:36.644Z,99.90
2022-09-06T06:06:07.334Z,99.90
2022-09-06T06:08:36.670Z,99.90
2022-09-06T06:11:04.764Z,99.90
2022-09-06T06:13:39.454Z,99.90
2022-09-06T06:16:08.018Z,99.90
2022-09-06T06:18:36.626Z,99.90
2022-09-06T06:21:11.175Z,99.90
2022-09-06T06:23:39.600Z,99.90
2022-09-06T06:26:08.104Z,98.40
2022-09-06T06:28:38.090Z,95.70
2022-09-06T06:31:06.640Z,91.40
2022-09-06T06:33:36.348Z,90.90
2022-09-06T06:36:05.548Z,90.90
2022-09-06T06:38:33.948Z,90.90
2022-09-06T06:41:06.666Z,92.80
2022-09-06T06:43:38.060Z,92.70
2022-09-06T06:46:08.507Z,92.90
2022-09-06T06:48:37.009Z,91.10
2022-09-06T06:51:05.105Z,90.60
2022-09-06T06:53:33.920Z,87.80
2022-09-06T06:56:02.278Z,87.20
2022-09-06T06:58:32.048Z,85.60
2022-09-06T07:01:00.214Z,82.70
2022-09-06T07:03:29.693Z,81.40
2022-09-06T07:06:13.333Z,80.30
2022-09-06T07:08:41.823Z,83.40
2022-09-06T07:11:10.610Z,84.50
2022-09-06T07:13:39.054Z,85.10
2022-09-06T07:16:12.556Z,82.70
2022-09-06T07:18:43.177Z,80.60
2022-09-06T07:26:33.405Z,76.80
2022-09-06T07:29:05.832Z,75.80
2022-09-06T07:34:25.280Z,75.40
2022-09-06T07:36:54.205Z,71.70
2022-09-06T07:39:23.224Z,65.90
2022-09-06T07:41:52.230Z,65.10
2022-09-06T07:44:20.637Z,66.10
2022-09-06T07:46:49.019Z,67.90
2022-09-06T07:49:17.430Z,70.80
2022-09-06T07:51:47.337Z,74.40
2022-09-06T07:54:31.497Z,74.70
2022-09-06T07:57:00.059Z,75.30
2022-09-06T07:59:28.356Z,75.00
2022-09-06T08:01:56.749Z,67.30
2022-09-06T08:04:25.141Z,65.80
2022-09-06T08:09:45.733Z,59.60
2022-09-06T08:12:14.001Z,59.90
2022-09-06T08:14:42.372Z,59.60
2022-09-06T08:17:10.736Z,65.70
2022-09-06T08:19:39.102Z,62.80
2022-09-06T08:22:08.867Z,65.80
2022-09-06T08:24:37.213Z,64.90
2022-09-06T08:27:07.837Z,72.70
2022-09-06T08:29:36.146Z,63.50
2022-09-06T08:32:04.919Z,66.30
2022-09-06T08:34:33.261Z,63.90
2022-09-06T08:37:01.584Z,64.50
2022-09-06T08:39:31.379Z,69.90
2022-09-06T08:42:04.154Z,71.20
2022-09-06T08:47:22.117Z,69.70
2022-09-06T08:49:52.972Z,70.20
2022-09-06T08:52:45.332Z,70.90
2022-09-06T08:55:45.438Z,72.20
2022-09-06T08:58:30.782Z,72.50
2022-09-06T09:01:03.282Z,75.50
2022-09-06T09:03:35.092Z,75.40
2022-09-06T09:06:05.557Z,72.60
2022-09-06T09:08:40.065Z,74.20
2022-09-06T09:11:15.374Z,75.30
2022-09-06T09:13:55.452Z,74.10
2022-09-06T09:16:25.157Z,78.10
2022-09-06T09:18:55.222Z,78.30
2022-09-06T09:21:30.429Z,75.50
2022-09-06T09:24:03.120Z,78.90
2022-09-06T09:26:38.081Z,73.70
2022-09-06T09:29:09.403Z,77.20
2022-09-06T09:31:43.318Z,72.30
2022-09-06T09:34:16.164Z,73.70
2022-09-06T09:39:36.989Z,75.40
2022-09-06T09:42:08.372Z,74.70
2022-09-06T09:44:37.935Z,74.40
2022-09-06T09:47:24.622Z,71.40
2022-09-06T09:49:53.003Z,62.50
2022-09-06T09:52:27.964Z,64.60
2022-09-06T09:54:59.027Z,66.00
2022-09-06T09:57:31.992Z,68.50
2022-09-06T10:00:02.081Z,65.80
2022-09-06T10:02:34.367Z,69.00
2022-09-06T10:05:05.381Z,71.40
2022-09-06T10:07:34.904Z,74.20
2022-09-06T10:10:06.023Z,71.90
2022-09-06T10:12:38.844Z,74.10
2022-09-06T10:15:09.424Z,74.00
2022-09-06T10:17:39.854Z,73.80
2022-09-06T10:20:10.876Z,75.40
2022-09-06T10:22:52.769Z,77.40
2022-09-06T10:25:38.292Z,74.90
2022-09-06T10:28:29.400Z,74.90
2022-09-06T10:31:31.396Z,75.50
2022-09-06T10:34:21.441Z,75.00
2022-09-06T10:36:57.870Z,75.10
2022-09-06T10:39:40.397Z,76.60
2022-09-06T10:42:20.740Z,77.00
2022-09-06T10:45:15.245Z,77.30
2022-09-06T10:47:56.585Z,79.30
2022-09-06T10:50:31.949Z,77.40
2022-09-06T10:53:07.809Z,76.80
2022-09-06T10:55:40.168Z,76.70
2022-09-06T11:00:48.024Z,79.40
2022-09-06T11:06:13.971Z,79.90
2022-09-06T11:08:48.343Z,81.10
2022-09-06T11:11:23.303Z,82.30
2022-09-06T11:13:51.640Z,78.00
2022-09-06T11:16:26.721Z,79.80
2022-09-06T11:18:59.833Z,77.30
2022-09-06T11:22:01.724Z,77.00
2022-09-06T11:24:43.736Z,78.10
2022-09-06T11:27:18.029Z,75.80
2022-09-06T11:29:52.455Z,76.50
2022-09-06T11:32:38.618Z,74.90
2022-09-06T11:35:11.219Z,74.60
2022-09-06T11:37:43.048Z,75.50
2022-09-06T11:43:17.434Z,77.80
2022-09-06T11:45:48.983Z,75.70
2022-09-06T11:48:46.888Z,75.40
2022-09-06T11:51:33.716Z,75.30
2022-09-06T11:54:26.911Z,75.30
2022-09-06T11:57:00.591Z,74.20
2022-09-06T11:59:38.340Z,74.10
2022-09-06T12:02:08.858Z,73.90
2022-09-06T12:05:17.919Z,75.40
2022-09-06T12:08:24.238Z,76.00
2022-09-06T12:11:22.506Z,76.00
2022-09-06T12:13:57.737Z,78.00
2022-09-06T12:16:46.557Z,78.50
2022-09-06T12:19:44.682Z,78.90
2022-09-06T12:23:04.765Z,79.70
2022-09-06T12:25:58.620Z,80.40
2022-09-06T12:28:45.221Z,82.10
2022-09-06T12:31:39.743Z,81.40
2022-09-06T12:34:12.608Z,80.30
2022-09-06T12:36:50.820Z,80.90
2022-09-06T12:39:21.330Z,80.30
2022-09-06T12:41:55.117Z,78.50
2022-09-06T12:44:38.611Z,80.00
2022-09-06T12:47:12.178Z,73.80
2022-09-06T12:49:40.572Z,71.40
2022-09-06T12:52:14.563Z,66.30
2022-09-06T12:54:45.694Z,61.20
2022-09-06T12:57:20.143Z,61.40
2022-09-06T12:59:56.452Z,61.90
2022-09-06T13:02:31.003Z,56.00
2022-09-06T13:05:05.458Z,55.30
2022-09-06T13:07:35.513Z,55.20
2022-09-06T13:10:05.201Z,55.60
2022-09-06T13:12:36.257Z,56.70
2022-09-06T13:15:09.093Z,59.50
2022-09-06T13:17:38.502Z,59.60
2022-09-06T13:20:14.845Z,62.40
2022-09-06T13:22:46.347Z,64.30
2022-09-06T13:25:20.489Z,65.50
2022-09-06T13:27:51.721Z,66.50
2022-09-06T13:30:42.226Z,67.10
2022-09-06T13:33:24.448Z,62.80
2022-09-06T13:36:06.042Z,61.20
2022-09-06T13:38:36.841Z,61.50
2022-09-06T13:41:12.492Z,63.40
2022-09-06T13:43:47.747Z,64.30
2022-09-06T13:46:16.152Z,63.50
2022-09-06T13:48:45.068Z,65.70
2022-09-06T13:51:13.577Z,66.20
2022-09-06T13:53:42.236Z,67.90
2022-09-06T13:56:12.005Z,67.20
2022-09-06T13:58:40.284Z,69.50
2022-09-06T14:01:11.264Z,69.90
2022-09-06T14:03:42.995Z,71.40
2022-09-06T14:06:12.040Z,72.60
2022-09-06T14:11:29.222Z,73.50
2022-09-06T14:13:57.742Z,73.50
2022-09-06T14:16:27.470Z,74.80
2022-09-06T14:18:55.713Z,74.90
2022-09-06T14:21:24.086Z,75.40
2022-09-06T14:23:52.822Z,78.70
2022-09-06T14:26:21.916Z,76.90
2022-09-06T14:28:51.094Z,76.90
2022-09-06T14:31:23.358Z,77.80
2022-09-06T14:33:53.713Z,78.50
2022-09-06T14:36:24.562Z,78.80
2022-09-06T14:38:53.204Z,78.20
2022-09-06T14:41:21.879Z,78.30
2022-09-06T14:43:52.559Z,78.70
2022-09-06T14:46:22.338Z,80.80
2022-09-06T14:48:57.069Z,80.10
2022-09-06T14:51:25.393Z,79.00
2022-09-06T14:53:55.738Z,79.80
2022-09-06T14:56:24.440Z,79.90
2022-09-06T14:58:54.735Z,79.80
2022-09-06T15:01:25.370Z,81.20
2022-09-06T15:03:57.633Z,81.20
2022-09-06T15:06:27.703Z,86.20
2022-09-06T15:08:59.361Z,85.20
2022-09-06T15:11:34.547Z,86.90
2022-09-06T15:14:04.099Z,89.20
2022-09-06T15:16:32.714Z,91.10
2022-09-06T15:19:02.797Z,91.50
2022-09-06T15:21:31.657Z,91.30
2022-09-06T15:24:00.123Z,90.70
2022-09-06T15:26:29.000Z,91.40
2022-09-06T15:28:57.297Z,92.90
2022-09-06T15:31:25.583Z,93.90
2022-09-06T15:33:54.043Z,97.20
2022-09-06T15:36:24.150Z,98.20
2022-09-06T15:38:54.267Z,99.90
2022-09-06T15:41:25.431Z,99.90
2022-09-06T15:43:57.850Z,99.90
2022-09-06T15:46:44.322Z,99.90
2022-09-06T15:49:14.220Z,99.90
2022-09-06T15:51:44.562Z,99.90
2022-09-06T15:54:14.079Z,99.90
2022-09-06T15:56:41.514Z,99.90
2022-09-06T15:59:10.386Z,99.90
2022-09-06T16:01:39.057Z,99.90
2022-09-06T16:04:08.112Z,99.90
2022-09-06T16:06:39.657Z,99.90
2022-09-06T16:09:10.453Z,99.90
2022-09-06T16:11:38.961Z,99.90
2022-09-06T16:14:08.749Z,99.90
2022-09-06T16:16:37.528Z,99.90
2022-09-06T16:19:05.808Z,99.90
2022-09-06T16:21:35.513Z,99.90
2022-09-06T16:24:05.365Z,99.90
2022-09-06T16:26:37.065Z,99.90
2022-09-06T16:29:06.637Z,99.90
2022-09-06T16:31:39.841Z,99.90
2022-09-06T16:34:08.971Z,99.90
2022-09-06T16:36:37.351Z,99.90
2022-09-06T16:39:06.222Z,99.90
2022-09-06T16:41:40.789Z,99.90
2022-09-06T16:44:09.527Z,99.90
2022-09-06T16:46:40.154Z,99.90
2022-09-06T16:49:08.507Z,99.90
2022-09-06T16:51:36.860Z,99.90
2022-09-06T16:54:05.330Z,99.90
2022-09-06T16:56:36.273Z,99.90
2022-09-06T16:59:06.863Z,99.90
2022-09-06T17:01:37.040Z,99.90
2022-09-06T17:04:06.809Z,99.90
2022-09-06T17:06:42.191Z,99.90
2022-09-06T17:09:10.529Z,99.90
2022-09-06T17:11:40.321Z,99.90
2022-09-06T17:14:08.866Z,99.90
2022-09-06T17:16:55.943Z,99.90
2022-09-06T17:19:24.275Z,99.90
2022-09-06T17:21:52.737Z,99.90
2022-09-06T17:24:21.934Z,99.90
2022-09-06T17:26:51.555Z,99.90
2022-09-06T17:29:20.034Z,99.90
2022-09-06T17:31:49.606Z,99.90
2022-09-06T17:34:17.966Z,99.90
2022-09-06T17:36:46.288Z,99.90
2022-09-06T17:39:17.614Z,99.90
2022-09-06T17:41:48.114Z,99.90
2022-09-06T17:44:20.197Z,99.90
2022-09-06T17:47:11.474Z,99.90
2022-09-06T17:49:37.965Z,99.90
2022-09-06T17:52:07.810Z,99.90
2022-09-06T17:54:36.430Z,99.90
2022-09-06T17:57:04.863Z,99.90
2022-09-06T17:59:35.935Z,99.90
2022-09-06T18:02:08.197Z,99.90
2022-09-06T18:04:36.804Z,99.90
2022-09-06T18:07:07.703Z,99.90
2022-09-06T18:09:39.632Z,99.90
2022-09-06T18:12:09.711Z,99.90
2022-09-06T18:14:40.741Z,99.90
2022-09-06T18:17:10.083Z,99.90
2022-09-06T18:19:39.287Z,99.90
2022-09-06T18:22:10.760Z,99.90
2022-09-06T18:24:39.023Z,99.90
2022-09-06T18:27:07.349Z,99.90
2022-09-06T18:29:40.195Z,99.90
2022-09-06T18:32:10.286Z,99.90
2022-09-06T18:34:38.965Z,99.90
2022-09-06T18:37:07.886Z,99.90
2022-09-06T18:39:36.544Z,99.90
2022-09-06T18:42:10.577Z,99.90
2022-09-06T18:44:41.738Z,99.90
2022-09-06T18:47:13.770Z,99.90
2022-09-06T18:49:45.624Z,99.90
2022-09-06T18:52:15.725Z,99.90
2022-09-06T18:54:45.343Z,99.90
2022-09-06T18:57:21.076Z,99.90
2022-09-06T18:59:49.467Z,99.90
2022-09-06T19:02:26.099Z,99.90
2022-09-06T19:05:07.023Z,99.90
2022-09-06T19:07:35.273Z,99.90
2022-09-06T19:10:04.541Z,99.90
2022-09-06T19:12:36.881Z,99.90
2022-09-06T19:15:07.320Z,99.90
2022-09-06T19:17:40.153Z,99.90
2022-09-06T19:20:10.909Z,99.90
2022-09-06T19:22:40.462Z,99.90
2022-09-06T19:25:10.865Z,99.90
2022-09-06T19:27:39.489Z,99.90
2022-09-06T19:30:11.589Z,99.90
2022-09-06T19:32:47.276Z,99.90
2022-09-06T19:35:15.596Z,99.90
2022-09-06T19:37:44.220Z,99.90
2022-09-06T19:40:17.555Z,99.90
2022-09-06T19:42:45.872Z,99.90
2022-09-06T19:45:14.262Z,99.90
2022-09-06T19:47:45.360Z,99.90
2022-09-06T19:50:14.994Z,99.90
2022-09-06T19:52:43.323Z,99.90
2022-09-06T19:55:12.536Z,99.90
2022-09-06T19:57:43.172Z,99.90
2022-09-06T20:00:12.638Z,99.90
2022-09-06T20:02:41.214Z,99.90
2022-09-06T20:05:11.514Z,99.90
2022-09-06T20:07:39.867Z,99.90
2022-09-06T20:10:08.528Z,99.90
2022-09-06T20:12:36.933Z,99.90
2022-09-06T20:15:05.698Z,99.90
2022-09-06T20:17:34.655Z,99.90
2022-09-06T20:20:04.116Z,99.90
2022-09-06T20:22:33.823Z,99.90
2022-09-06T20:25:02.366Z,99.90
2022-09-06T20:27:31.786Z,99.90
2022-09-06T20:30:00.180Z,99.90
2022-09-06T20:32:28.769Z,99.90
2022-09-06T20:34:57.054Z,99.90
2022-09-06T20:37:25.377Z,99.90
2022-09-06T20:39:55.671Z,99.90
2022-09-06T20:42:23.973Z,99.90
2022-09-06T20:44:52.296Z,99.90
2022-09-06T20:47:20.606Z,99.90
2022-09-06T20:49:49.002Z,99.90
2022-09-06T20:52:17.318Z,99.90
2022-09-06T20:54:45.576Z,99.90
2022-09-06T20:57:15.345Z,99.90
2022-09-06T20:59:43.733Z,99.90
2022-09-06T21:02:12.118Z,99.90
2022-09-06T21:04:40.438Z,99.90
2022-09-06T21:07:09.022Z,99.90
2022-09-06T21:09:37.512Z,99.90
2022-09-06T21:12:06.051Z,99.90
2022-09-06T21:14:35.766Z,99.90
2022-09-06T21:17:04.075Z,99.90
2022-09-06T21:19:32.418Z,99.90
2022-09-06T21:22:00.893Z,99.90
2022-09-06T21:24:29.194Z,99.90
2022-09-06T21:26:57.459Z,99.90
2022-09-06T21:29:25.697Z,99.90
2022-09-06T21:31:55.425Z,99.90
2022-09-06T21:34:23.782Z,99.90
2022-09-06T21:36:52.138Z,99.90
2022-09-06T21:39:20.388Z,99.90
2022-09-06T21:41:48.637Z,99.90
2022-09-06T21:44:16.916Z,99.90
2022-09-06T21:46:45.363Z,99.90
2022-09-06T21:49:15.449Z,99.90
2022-09-06T21:51:43.876Z,99.90
2022-09-06T21:54:12.170Z,99.90
2022-09-06T21:56:40.891Z,99.90
2022-09-06T21:59:10.924Z,99.90
2022-09-06T22:01:40.769Z,99.90
2022-09-06T22:04:09.807Z,99.90
2022-09-06T22:06:39.732Z,99.90
2022-09-06T22:09:11.435Z,99.90
2022-09-06T22:11:40.913Z,99.90
2022-09-06T22:14:11.038Z,99.90
2022-09-06T22:16:40.995Z,99.90
2022-09-06T22:19:10.094Z,99.90
2022-09-06T22:21:39.800Z,99.90
2022-09-06T22:24:09.877Z,99.90
2022-09-06T22:26:39.995Z,99.90
2022-09-06T22:29:10.897Z,99.90
2022-09-06T22:31:39.390Z,99.90
2022-09-06T22:34:08.138Z,99.90
2022-09-06T22:36:36.939Z,99.90
2022-09-06T22:39:06.648Z,99.90
2022-09-06T22:41:35.180Z,99.90
2022-09-06T22:44:04.972Z,99.90
2022-09-06T22:46:33.554Z,99.90
2022-09-06T22:49:02.375Z,99.90
2022-09-06T22:51:30.625Z,99.90
2022-09-06T22:53:58.919Z,99.90
2022-09-06T22:56:28.708Z,99.90
2022-09-06T22:58:56.969Z,99.90
2022-09-06T23:01:25.304Z,99.90
2022-09-06T23:03:53.593Z,99.90
2022-09-06T23:06:22.240Z,99.90
2022-09-06T23:08:50.502Z,99.90
2022-09-06T23:11:20.448Z,99.90
2022-09-06T23:13:50.084Z,99.90
2022-09-06T23:16:20.044Z,99.90
2022-09-06T23:18:49.386Z,99.90
2022-09-06T23:21:19.427Z,99.90
2022-09-06T23:23:49.078Z,99.90
2022-09-06T23:26:20.561Z,99.90
2022-09-06T23:28:51.667Z,99.90
2022-09-06T23:31:20.051Z,99.90
2022-09-06T23:33:48.356Z,99.90
2022-09-06T23:36:16.643Z,99.90
2022-09-06T23:38:45.322Z,99.90
2022-09-06T23:41:13.614Z,99.90
2022-09-06T23:43:43.437Z,99.90
2022-09-06T23:46:16.016Z,99.90
2022-09-06T23:48:44.443Z,99.90
2022-09-06T23:51:13.825Z,99.90
2022-09-06T23:53:42.467Z,99.90
2022-09-06T23:56:11.337Z,99.90
2022-09-06T23:58:39.861Z,99.90
